createdAt,value
2023-04-02T00:00:24.552Z,954.74
2023-04-02T00:01:24.550Z,954.75
2023-04-02T00:02:24.571Z,954.74
2023-04-02T00:03:24.658Z,954.76
2023-04-02T00:04:24.565Z,954.77
2023-04-02T00:05:24.558Z,954.76
2023-04-02T00:06:24.544Z,954.76
2023-04-02T00:07:24.484Z,954.74
2023-04-02T00:08:24.468Z,954.74
2023-04-02T00:09:24.451Z,954.74
2023-04-02T00:10:24.440Z,954.76
2023-04-02T00:11:24.486Z,954.75
2023-04-02T00:12:24.414Z,954.75
2023-04-02T00:13:24.448Z,954.74
2023-04-02T00:14:24.404Z,954.77
2023-04-02T00:15:24.398Z,954.76
2023-04-02T00:16:24.434Z,954.76
2023-04-02T00:17:24.362Z,954.78
2023-04-02T00:18:24.377Z,954.78
2023-04-02T00:19:24.349Z,954.78
2023-04-02T00:20:24.325Z,954.79
2023-04-02T00:21:24.364Z,954.80
2023-04-02T00:22:24.319Z,954.80
2023-04-02T00:23:24.299Z,954.82
2023-04-02T00:24:24.325Z,954.82
2023-04-02T00:25:24.272Z,954.85
2023-04-02T00:26:24.282Z,954.87
2023-04-02T00:27:24.273Z,954.85
2023-04-02T00:28:24.240Z,954.87
2023-04-02T00:29:24.240Z,954.88
2023-04-02T00:30:24.230Z,954.87
2023-04-02T00:31:24.273Z,954.89
2023-04-02T00:32:24.203Z,954.91
2023-04-02T00:33:24.239Z,954.93
2023-04-02T00:34:24.213Z,954.91
2023-04-02T00:35:24.200Z,954.92
2023-04-02T00:36:24.202Z,954.91
2023-04-02T00:37:24.182Z,954.94
2023-04-02T00:38:24.201Z,954.95
2023-04-02T00:39:24.157Z,954.94
2023-04-02T00:40:24.132Z,954.96
2023-04-02T00:41:24.123Z,954.94
2023-04-02T00:42:24.116Z,954.99
2023-04-02T00:43:24.081Z,954.97
2023-04-02T00:44:24.075Z,954.99
2023-04-02T00:45:24.067Z,954.99
2023-04-02T00:46:24.292Z,954.99
2023-04-02T00:47:24.102Z,955.00
2023-04-02T00:48:24.055Z,955.02
2023-04-02T00:49:24.081Z,955.02
2023-04-02T00:50:24.071Z,955.01
2023-04-02T00:51:24.036Z,954.99
2023-04-02T00:52:23.989Z,955.01
2023-04-02T00:53:23.998Z,955.01
2023-04-02T00:54:24.016Z,955.02
2023-04-02T00:55:23.983Z,955.01
2023-04-02T00:56:23.971Z,955.01
2023-04-02T00:57:23.941Z,955.02
2023-04-02T00:58:23.949Z,955.02
2023-04-02T00:59:23.911Z,955.02
2023-04-02T01:00:23.950Z,955.01
2023-04-02T01:01:23.961Z,955.01
2023-04-02T01:02:23.945Z,955.00
2023-04-02T01:03:24.027Z,955.01
2023-04-02T01:04:23.893Z,955.00
2023-04-02T01:05:23.905Z,955.03
2023-04-02T01:06:23.869Z,955.02
2023-04-02T01:07:23.828Z,955.04
2023-04-02T01:08:23.843Z,955.03
2023-04-02T01:09:23.816Z,955.06
2023-04-02T01:10:23.813Z,955.09
2023-04-02T01:11:23.817Z,955.08
2023-04-02T01:12:23.810Z,955.10
2023-04-02T01:13:23.794Z,955.09
2023-04-02T01:14:23.774Z,955.08
2023-04-02T01:15:23.765Z,955.10
2023-04-02T01:16:23.869Z,955.10
2023-04-02T01:17:23.738Z,955.11
2023-04-02T01:18:23.725Z,955.10
2023-04-02T01:19:23.719Z,955.12
2023-04-02T01:20:23.734Z,955.11
2023-04-02T01:21:23.693Z,955.10
2023-04-02T01:22:23.737Z,955.14
2023-04-02T01:23:23.672Z,955.14
2023-04-02T01:24:23.650Z,955.16
2023-04-02T01:25:23.668Z,955.17
2023-04-02T01:26:23.644Z,955.18
2023-04-02T01:27:23.663Z,955.19
2023-04-02T01:28:23.616Z,955.20
2023-04-02T01:29:23.623Z,955.20
2023-04-02T01:30:23.588Z,955.21
2023-04-02T01:31:23.657Z,955.21
2023-04-02T01:32:23.618Z,955.21
2023-04-02T01:33:23.582Z,955.23
2023-04-02T01:34:25.133Z,955.23
2023-04-02T01:35:23.547Z,955.23
2023-04-02T01:36:23.546Z,955.21
2023-04-02T01:37:23.531Z,955.21
2023-04-02T01:38:23.522Z,955.21
2023-04-02T01:39:23.528Z,955.23
2023-04-02T01:40:23.500Z,955.23
2023-04-02T01:41:23.475Z,955.24
2023-04-02T01:42:23.472Z,955.23
2023-04-02T01:43:23.446Z,955.24
2023-04-02T01:44:23.447Z,955.25
2023-04-02T01:45:23.439Z,955.25
2023-04-02T01:46:23.535Z,955.26
2023-04-02T01:47:23.400Z,955.26
2023-04-02T01:48:23.393Z,955.27
2023-04-02T01:49:23.403Z,955.28
2023-04-02T01:50:23.375Z,955.28
2023-04-02T01:51:23.368Z,955.29
2023-04-02T01:52:23.355Z,955.29
2023-04-02T01:53:23.346Z,955.30
2023-04-02T01:54:23.350Z,955.30
2023-04-02T01:55:23.332Z,955.28
2023-04-02T01:56:23.397Z,955.31
2023-04-02T01:57:23.348Z,955.31
2023-04-02T01:58:23.288Z,955.30
2023-04-02T01:59:23.279Z,955.31
2023-04-02T02:00:23.279Z,955.31
2023-04-02T02:01:23.309Z,955.31
2023-04-02T02:02:23.343Z,955.33
2023-04-02T02:03:23.246Z,955.32
2023-04-02T02:04:23.226Z,955.32
2023-04-02T02:05:23.225Z,955.32
2023-04-02T02:06:23.214Z,955.34
2023-04-02T02:07:23.196Z,955.34
2023-04-02T02:08:23.183Z,955.34
2023-04-02T02:09:23.198Z,955.33
2023-04-02T02:10:23.163Z,955.36
2023-04-02T02:11:23.163Z,955.37
2023-04-02T02:12:23.134Z,955.37
2023-04-02T02:13:23.134Z,955.39
2023-04-02T02:14:23.226Z,955.38
2023-04-02T02:15:23.136Z,955.39
2023-04-02T02:16:23.140Z,955.41
2023-04-02T02:17:23.134Z,955.42
2023-04-02T02:18:23.091Z,955.42
2023-04-02T02:19:23.068Z,955.43
2023-04-02T02:20:23.137Z,955.43
2023-04-02T02:21:23.070Z,955.42
2023-04-02T02:22:23.064Z,955.44
2023-04-02T02:23:23.094Z,955.45
2023-04-02T02:24:23.040Z,955.44
2023-04-02T02:25:23.026Z,955.46
2023-04-02T02:26:23.052Z,955.45
2023-04-02T02:27:22.990Z,955.47
2023-04-02T02:28:22.992Z,955.48
2023-04-02T02:29:22.957Z,955.49
2023-04-02T02:30:22.966Z,955.50
2023-04-02T02:31:23.055Z,955.51
2023-04-02T02:32:22.958Z,955.53
2023-04-02T02:33:22.922Z,955.53
2023-04-02T02:34:22.944Z,955.54
2023-04-02T02:35:22.898Z,955.53
2023-04-02T02:36:23.120Z,955.55
2023-04-02T02:37:22.877Z,955.56
2023-04-02T02:38:22.987Z,955.56
2023-04-02T02:39:22.893Z,955.57
2023-04-02T02:40:22.870Z,955.56
2023-04-02T02:41:22.860Z,955.56
2023-04-02T02:42:22.828Z,955.55
2023-04-02T02:43:22.816Z,955.55
2023-04-02T02:44:22.860Z,955.55
2023-04-02T02:45:22.810Z,955.56
2023-04-02T02:46:22.836Z,955.56
2023-04-02T02:47:22.851Z,955.58
2023-04-02T02:48:22.794Z,955.58
2023-04-02T02:49:22.767Z,955.58
2023-04-02T02:50:22.762Z,955.60
2023-04-02T02:51:22.744Z,955.60
2023-04-02T02:52:22.734Z,955.63
2023-04-02T02:53:22.706Z,955.63
2023-04-02T02:54:22.704Z,955.65
2023-04-02T02:55:22.740Z,955.65
2023-04-02T02:56:22.689Z,955.67
2023-04-02T02:57:22.681Z,955.66
2023-04-02T02:58:22.661Z,955.66
2023-04-02T02:59:22.671Z,955.67
2023-04-02T03:00:22.641Z,955.67
2023-04-02T03:01:22.725Z,955.68
2023-04-02T03:02:22.709Z,955.68
2023-04-02T03:03:22.682Z,955.69
2023-04-02T03:04:22.913Z,955.68
2023-04-02T03:05:22.599Z,955.69
2023-04-02T03:06:22.595Z,955.71
2023-04-02T03:07:22.550Z,955.71
2023-04-02T03:08:22.548Z,955.72
2023-04-02T03:09:22.553Z,955.73
2023-04-02T03:10:22.536Z,955.74
2023-04-02T03:11:22.538Z,955.76
2023-04-02T03:12:22.556Z,955.77
2023-04-02T03:13:22.494Z,955.78
2023-04-02T03:14:22.501Z,955.79
2023-04-02T03:15:22.478Z,955.81
2023-04-02T03:16:22.585Z,955.81
2023-04-02T03:17:22.446Z,955.84
2023-04-02T03:18:22.455Z,955.85
2023-04-02T03:19:22.432Z,955.84
2023-04-02T03:20:22.490Z,955.86
2023-04-02T03:21:22.424Z,955.88
2023-04-02T03:22:22.443Z,955.89
2023-04-02T03:23:22.390Z,955.90
2023-04-02T03:24:22.380Z,955.92
2023-04-02T03:25:22.390Z,955.92
2023-04-02T03:26:22.373Z,955.93
2023-04-02T03:27:22.363Z,955.94
2023-04-02T03:28:22.347Z,955.94
2023-04-02T03:29:22.399Z,955.94
2023-04-02T03:30:22.319Z,955.95
2023-04-02T03:31:22.330Z,955.97
2023-04-02T03:32:22.291Z,955.97
2023-04-02T03:33:22.296Z,955.98
2023-04-02T03:34:22.277Z,956.00
2023-04-02T03:35:22.261Z,956.00
2023-04-02T03:36:28.295Z,955.99
2023-04-02T03:37:22.254Z,956.03
2023-04-02T03:38:22.230Z,956.01
2023-04-02T03:39:22.221Z,956.03
2023-04-02T03:40:22.219Z,956.03
2023-04-02T03:41:22.209Z,956.05
2023-04-02T03:42:22.190Z,956.06
2023-04-02T03:43:22.173Z,956.06
2023-04-02T03:44:22.184Z,956.08
2023-04-02T03:45:22.159Z,956.08
2023-04-02T03:46:22.186Z,956.08
2023-04-02T03:47:22.143Z,956.08
2023-04-02T03:48:22.125Z,956.08
2023-04-02T03:49:22.111Z,956.09
2023-04-02T03:50:22.107Z,956.11
2023-04-02T03:51:22.105Z,956.11
2023-04-02T03:52:22.091Z,956.13
2023-04-02T03:53:22.069Z,956.15
2023-04-02T03:54:22.077Z,956.16
2023-04-02T03:55:22.092Z,956.18
2023-04-02T03:56:22.063Z,956.20
2023-04-02T03:57:22.055Z,956.21
2023-04-02T03:58:22.018Z,956.21
2023-04-02T03:59:22.034Z,956.23
2023-04-02T04:00:21.996Z,956.23
2023-04-02T04:01:21.998Z,956.22
2023-04-02T04:02:22.049Z,956.24
2023-04-02T04:03:21.979Z,956.24
2023-04-02T04:04:22.021Z,956.25
2023-04-02T04:05:21.940Z,956.25
2023-04-02T04:06:22.003Z,956.25
2023-04-02T04:07:21.935Z,956.25
2023-04-02T04:08:21.912Z,956.26
2023-04-02T04:09:21.903Z,956.27
2023-04-02T04:10:21.895Z,956.29
2023-04-02T04:11:21.959Z,956.30
2023-04-02T04:12:21.880Z,956.31
2023-04-02T04:13:21.858Z,956.32
2023-04-02T04:14:21.850Z,956.32
2023-04-02T04:15:21.870Z,956.34
2023-04-02T04:16:21.945Z,956.35
2023-04-02T04:17:21.816Z,956.37
2023-04-02T04:18:21.815Z,956.39
2023-04-02T04:19:21.826Z,956.40
2023-04-02T04:20:21.822Z,956.41
2023-04-02T04:21:21.794Z,956.42
2023-04-02T04:22:21.763Z,956.44
2023-04-02T04:23:21.771Z,956.46
2023-04-02T04:24:21.775Z,956.47
2023-04-02T04:25:21.742Z,956.48
2023-04-02T04:26:21.731Z,956.49
2023-04-02T04:27:21.723Z,956.49
2023-04-02T04:28:21.696Z,956.51
2023-04-02T04:29:21.692Z,956.52
2023-04-02T04:30:21.678Z,956.53
2023-04-02T04:31:22.815Z,956.55
2023-04-02T04:32:21.678Z,956.57
2023-04-02T04:33:21.656Z,956.58
2023-04-02T04:34:21.667Z,956.58
2023-04-02T04:35:21.660Z,956.59
2023-04-02T04:36:21.715Z,956.61
2023-04-02T04:37:21.686Z,956.62
2023-04-02T04:38:21.593Z,956.64
2023-04-02T04:39:21.539Z,956.63
2023-04-02T04:40:21.529Z,956.63
2023-04-02T04:41:21.543Z,956.65
2023-04-02T04:42:21.494Z,956.68
2023-04-02T04:43:21.499Z,956.71
2023-04-02T04:44:21.470Z,956.72
2023-04-02T04:45:21.464Z,956.73
2023-04-02T04:46:21.555Z,956.76
2023-04-02T04:47:21.488Z,956.77
2023-04-02T04:48:21.428Z,956.78
2023-04-02T04:49:21.425Z,956.80
2023-04-02T04:50:21.409Z,956.81
2023-04-02T04:51:21.434Z,956.82
2023-04-02T04:52:21.396Z,956.83
2023-04-02T04:53:21.398Z,956.83
2023-04-02T04:54:21.364Z,956.83
2023-04-02T04:55:21.361Z,956.83
2023-04-02T04:56:21.368Z,956.83
2023-04-02T04:57:21.407Z,956.85
2023-04-02T04:58:21.338Z,956.86
2023-04-02T04:59:21.316Z,956.85
2023-04-02T05:00:21.300Z,956.86
2023-04-02T05:01:21.356Z,956.87
2023-04-02T05:02:21.288Z,956.87
2023-04-02T05:03:21.281Z,956.87
2023-04-02T05:04:21.291Z,956.89
2023-04-02T05:05:21.269Z,956.89
2023-04-02T05:06:21.264Z,956.89
2023-04-02T05:07:21.281Z,956.90
2023-04-02T05:08:21.220Z,956.91
2023-04-02T05:09:21.220Z,956.92
2023-04-02T05:10:21.213Z,956.93
2023-04-02T05:11:21.209Z,956.93
2023-04-02T05:12:21.178Z,956.95
2023-04-02T05:13:21.165Z,956.95
2023-04-02T05:14:21.153Z,956.97
2023-04-02T05:15:21.172Z,956.99
2023-04-02T05:16:21.178Z,957.00
2023-04-02T05:17:21.155Z,957.01
2023-04-02T05:18:21.127Z,957.02
2023-04-02T05:19:21.114Z,957.03
2023-04-02T05:20:21.095Z,957.04
2023-04-02T05:21:21.095Z,957.05
2023-04-02T05:22:21.073Z,957.07
2023-04-02T05:23:21.065Z,957.08
2023-04-02T05:24:21.044Z,957.09
2023-04-02T05:25:21.042Z,957.09
2023-04-02T05:26:21.087Z,957.10
2023-04-02T05:27:21.019Z,957.11
2023-04-02T05:28:21.005Z,957.12
2023-04-02T05:29:21.008Z,957.13
2023-04-02T05:30:21.003Z,957.14
2023-04-02T05:31:21.045Z,957.14
2023-04-02T05:32:20.972Z,957.16
2023-04-02T05:33:20.956Z,957.16
2023-04-02T05:34:20.945Z,957.17
2023-04-02T05:35:20.932Z,957.18
2023-04-02T05:36:20.972Z,957.19
2023-04-02T05:37:20.924Z,957.20
2023-04-02T05:38:20.897Z,957.21
2023-04-02T05:39:20.891Z,957.21
2023-04-02T05:40:20.889Z,957.22
2023-04-02T05:41:20.889Z,957.22
2023-04-02T05:42:20.864Z,957.22
2023-04-02T05:43:20.884Z,957.22
2023-04-02T05:44:20.842Z,957.22
2023-04-02T05:45:20.864Z,957.23
2023-04-02T05:46:20.849Z,957.24
2023-04-02T05:47:20.863Z,957.25
2023-04-02T05:48:20.797Z,957.26
2023-04-02T05:49:20.797Z,957.26
2023-04-02T05:50:20.777Z,957.27
2023-04-02T05:51:20.777Z,957.27
2023-04-02T05:52:20.755Z,957.28
2023-04-02T05:53:20.750Z,957.29
2023-04-02T05:54:20.732Z,957.32
2023-04-02T05:55:20.733Z,957.32
2023-04-02T05:56:20.724Z,957.34
2023-04-02T05:57:23.177Z,957.34
2023-04-02T05:58:35.309Z,957.35
2023-04-02T05:59:20.687Z,957.37
2023-04-02T06:00:20.674Z,957.36
2023-04-02T06:01:20.715Z,957.38
2023-04-02T06:02:20.710Z,957.39
2023-04-02T06:03:20.722Z,957.40
2023-04-02T06:04:20.641Z,957.41
2023-04-02T06:05:20.619Z,957.43
2023-04-02T06:06:20.615Z,957.44
2023-04-02T06:07:20.616Z,957.46
2023-04-02T06:08:20.579Z,957.47
2023-04-02T06:09:20.597Z,957.47
2023-04-02T06:10:20.766Z,957.49
2023-04-02T06:11:20.569Z,957.51
2023-04-02T06:12:20.539Z,957.53
2023-04-02T06:13:20.552Z,957.54
2023-04-02T06:14:20.523Z,957.57
2023-04-02T06:15:20.512Z,957.58
2023-04-02T06:16:20.554Z,957.58
2023-04-02T06:17:20.513Z,957.60
2023-04-02T06:18:20.493Z,957.63
2023-04-02T06:19:20.504Z,957.64
2023-04-02T06:20:20.464Z,957.65
2023-04-02T06:21:20.473Z,957.67
2023-04-02T06:22:20.433Z,957.68
2023-04-02T06:23:20.437Z,957.69
2023-04-02T06:24:20.419Z,957.71
2023-04-02T06:25:20.407Z,957.71
2023-04-02T06:26:20.403Z,957.72
2023-04-02T06:27:20.394Z,957.74
2023-04-02T06:28:20.368Z,957.74
2023-04-02T06:29:20.368Z,957.75
2023-04-02T06:30:20.361Z,957.75
2023-04-02T06:31:20.428Z,957.75
2023-04-02T06:32:20.380Z,957.76
2023-04-02T06:33:20.326Z,957.76
2023-04-02T06:34:20.307Z,957.77
2023-04-02T06:35:20.316Z,957.79
2023-04-02T06:36:20.411Z,957.80
2023-04-02T06:37:20.297Z,957.80
2023-04-02T06:38:20.276Z,957.82
2023-04-02T06:39:20.271Z,957.83
2023-04-02T06:40:20.253Z,957.85
2023-04-02T06:41:20.300Z,957.87
2023-04-02T06:42:20.225Z,957.88
2023-04-02T06:43:20.216Z,957.89
2023-04-02T06:44:20.202Z,957.90
2023-04-02T06:45:20.202Z,957.91
2023-04-02T06:46:20.226Z,957.92
2023-04-02T06:47:20.188Z,957.93
2023-04-02T06:48:20.163Z,957.94
2023-04-02T06:49:20.163Z,957.96
2023-04-02T06:50:20.143Z,957.98
2023-04-02T06:51:20.145Z,957.99
2023-04-02T06:52:20.121Z,958.00
2023-04-02T06:53:20.116Z,958.01
2023-04-02T06:54:20.104Z,958.03
2023-04-02T06:55:20.158Z,958.04
2023-04-02T06:56:20.098Z,958.06
2023-04-02T06:57:20.123Z,958.08
2023-04-02T06:58:20.371Z,958.10
2023-04-02T06:59:20.057Z,958.11
2023-04-02T07:00:20.033Z,958.13
2023-04-02T07:01:20.127Z,958.14
2023-04-02T07:02:20.016Z,958.16
2023-04-02T07:03:20.009Z,958.18
2023-04-02T07:04:20.058Z,958.20
2023-04-02T07:05:19.994Z,958.21
2023-04-02T07:06:19.995Z,958.23
2023-04-02T07:07:19.989Z,958.24
2023-04-02T07:08:19.960Z,958.25
2023-04-02T07:09:19.966Z,958.26
2023-04-02T07:10:19.966Z,958.28
2023-04-02T07:11:21.014Z,958.29
2023-04-02T07:12:19.910Z,958.30
2023-04-02T07:13:19.913Z,958.32
2023-04-02T07:14:19.943Z,958.32
2023-04-02T07:15:19.973Z,958.34
2023-04-02T07:16:19.929Z,958.36
2023-04-02T07:17:19.869Z,958.37
2023-04-02T07:18:19.839Z,958.38
2023-04-02T07:19:19.850Z,958.40
2023-04-02T07:20:19.822Z,958.42
2023-04-02T07:21:19.832Z,958.44
2023-04-02T07:22:19.810Z,958.47
2023-04-02T07:23:19.788Z,958.48
2023-04-02T07:24:19.770Z,958.51
2023-04-02T07:25:19.766Z,958.52
2023-04-02T07:26:19.792Z,958.54
2023-04-02T07:27:19.750Z,958.55
2023-04-02T07:28:21.992Z,958.57
2023-04-02T07:29:19.743Z,958.58
2023-04-02T07:30:19.711Z,958.59
2023-04-02T07:31:19.792Z,958.60
2023-04-02T07:32:19.696Z,958.63
2023-04-02T07:33:19.683Z,958.65
2023-04-02T07:34:19.676Z,958.66
2023-04-02T07:35:19.667Z,958.68
2023-04-02T07:36:19.760Z,958.71
2023-04-02T07:37:19.655Z,958.72
2023-04-02T07:38:19.646Z,958.72
2023-04-02T07:39:19.632Z,958.74
2023-04-02T07:40:19.612Z,958.75
2023-04-02T07:41:19.687Z,958.77
2023-04-02T07:42:19.591Z,958.76
2023-04-02T07:43:19.591Z,958.77
2023-04-02T07:44:19.578Z,958.76
2023-04-02T07:45:19.573Z,958.78
2023-04-02T07:46:19.593Z,958.78
2023-04-02T07:47:19.551Z,958.79
2023-04-02T07:48:19.534Z,958.81
2023-04-02T07:49:19.526Z,958.83
2023-04-02T07:50:19.509Z,958.85
2023-04-02T07:51:19.531Z,958.85
2023-04-02T07:52:19.504Z,958.86
2023-04-02T07:53:19.483Z,958.87
2023-04-02T07:54:19.470Z,958.89
2023-04-02T07:55:19.474Z,958.90
2023-04-02T07:56:19.467Z,958.91
2023-04-02T07:57:19.585Z,958.92
2023-04-02T07:58:19.427Z,958.94
2023-04-02T07:59:19.420Z,958.96
2023-04-02T08:00:19.415Z,958.96
2023-04-02T08:01:19.414Z,958.97
2023-04-02T08:02:19.472Z,958.97
2023-04-02T08:03:19.452Z,958.99
2023-04-02T08:04:19.569Z,959.00
2023-04-02T08:05:19.359Z,959.00
2023-04-02T08:06:19.365Z,959.01
2023-04-02T08:07:19.343Z,959.04
2023-04-02T08:08:19.325Z,959.03
2023-04-02T08:09:19.322Z,959.06
2023-04-02T08:10:19.308Z,959.06
2023-04-02T08:11:19.334Z,959.09
2023-04-02T08:12:19.284Z,959.10
2023-04-02T08:13:19.349Z,959.12
2023-04-02T08:14:19.284Z,959.13
2023-04-02T08:15:19.279Z,959.15
2023-04-02T08:16:19.342Z,959.17
2023-04-02T08:17:19.257Z,959.18
2023-04-02T08:18:19.233Z,959.20
2023-04-02T08:19:19.243Z,959.21
2023-04-02T08:20:19.234Z,959.22
2023-04-02T08:21:19.234Z,959.23
2023-04-02T08:22:19.186Z,959.24
2023-04-02T08:23:19.185Z,959.25
2023-04-02T08:24:19.168Z,959.27
2023-04-02T08:25:19.160Z,959.29
2023-04-02T08:26:19.171Z,959.29
2023-04-02T08:27:19.144Z,959.31
2023-04-02T08:28:19.124Z,959.33
2023-04-02T08:29:19.119Z,959.34
2023-04-02T08:30:19.140Z,959.36
2023-04-02T08:31:19.161Z,959.37
2023-04-02T08:32:19.107Z,959.38
2023-04-02T08:33:19.097Z,959.40
2023-04-02T08:34:19.076Z,959.42
2023-04-02T08:35:19.074Z,959.43
2023-04-02T08:36:19.082Z,959.43
2023-04-02T08:37:19.049Z,959.44
2023-04-02T08:38:19.063Z,959.45
2023-04-02T08:39:19.041Z,959.46
2023-04-02T08:40:19.042Z,959.47
2023-04-02T08:41:19.014Z,959.49
2023-04-02T08:42:19.001Z,959.51
2023-04-02T08:43:18.979Z,959.52
2023-04-02T08:44:18.983Z,959.53
2023-04-02T08:45:24.981Z,959.54
2023-04-02T08:46:19.021Z,959.55
2023-04-02T08:47:18.938Z,959.57
2023-04-02T08:48:18.926Z,959.57
2023-04-02T08:49:18.923Z,959.59
2023-04-02T08:50:18.936Z,959.58
2023-04-02T08:51:18.931Z,959.59
2023-04-02T08:52:18.892Z,959.60
2023-04-02T08:53:18.874Z,959.61
2023-04-02T08:54:18.867Z,959.62
2023-04-02T08:55:18.847Z,959.63
2023-04-02T08:56:18.859Z,959.64
2023-04-02T08:57:18.861Z,959.66
2023-04-02T08:58:18.829Z,959.68
2023-04-02T08:59:18.812Z,959.69
2023-04-02T09:00:18.802Z,959.71
2023-04-02T09:01:18.832Z,959.72
2023-04-02T09:02:18.795Z,959.73
2023-04-02T09:03:18.774Z,959.74
2023-04-02T09:04:18.849Z,959.75
2023-04-02T09:05:18.762Z,959.76
2023-04-02T09:06:18.769Z,959.76
2023-04-02T09:07:18.727Z,959.78
2023-04-02T09:08:18.715Z,959.78
2023-04-02T09:09:18.706Z,959.79
2023-04-02T09:10:18.701Z,959.80
2023-04-02T09:11:18.696Z,959.80
2023-04-02T09:12:18.676Z,959.81
2023-04-02T09:13:18.674Z,959.83
2023-04-02T09:14:18.670Z,959.83
2023-04-02T09:15:18.642Z,959.83
2023-04-02T09:16:18.664Z,959.84
2023-04-02T09:17:18.621Z,959.84
2023-04-02T09:18:18.629Z,959.85
2023-04-02T09:19:18.602Z,959.87
2023-04-02T09:20:18.611Z,959.87
2023-04-02T09:21:18.593Z,959.88
2023-04-02T09:22:18.575Z,959.89
2023-04-02T09:23:18.574Z,959.90
2023-04-02T09:24:18.560Z,959.93
2023-04-02T09:25:18.553Z,959.93
2023-04-02T09:26:18.549Z,959.95
2023-04-02T09:27:18.518Z,959.96
2023-04-02T09:28:18.515Z,959.98
2023-04-02T09:29:18.503Z,960.00
2023-04-02T09:30:18.505Z,960.01
2023-04-02T09:31:18.508Z,960.03
2023-04-02T09:32:18.489Z,960.04
2023-04-02T09:33:18.476Z,960.05
2023-04-02T09:34:18.456Z,960.06
2023-04-02T09:35:26.002Z,960.06
2023-04-02T09:36:18.492Z,960.07
2023-04-02T09:37:24.441Z,960.08
2023-04-02T09:38:18.421Z,960.10
2023-04-02T09:39:18.400Z,960.12
2023-04-02T09:40:18.426Z,960.14
2023-04-02T09:41:18.441Z,960.16
2023-04-02T09:42:18.412Z,960.18
2023-04-02T09:43:18.476Z,960.21
2023-04-02T09:44:18.440Z,960.22
2023-04-02T09:45:18.388Z,960.23
2023-04-02T09:46:18.420Z,960.25
2023-04-02T09:47:18.511Z,960.26
2023-04-02T09:48:18.316Z,960.27
2023-04-02T09:49:18.340Z,960.28
2023-04-02T09:50:18.305Z,960.28
2023-04-02T09:51:18.318Z,960.29
2023-04-02T09:52:18.340Z,960.30
2023-04-02T09:53:18.261Z,960.31
2023-04-02T09:54:18.260Z,960.32
2023-04-02T09:55:18.241Z,960.33
2023-04-02T09:56:18.276Z,960.33
2023-04-02T09:57:18.278Z,960.35
2023-04-02T09:58:18.229Z,960.37
2023-04-02T09:59:18.225Z,960.38
2023-04-02T10:00:30.763Z,960.39
2023-04-02T10:01:18.240Z,960.40
2023-04-02T10:02:18.190Z,960.41
2023-04-02T10:03:18.233Z,960.43
2023-04-02T10:04:18.236Z,960.44
2023-04-02T10:05:39.511Z,960.45
2023-04-02T10:06:18.131Z,960.46
2023-04-02T10:07:18.213Z,960.47
2023-04-02T10:08:18.111Z,960.49
2023-04-02T10:09:18.107Z,960.49
2023-04-02T10:10:18.089Z,960.50
2023-04-02T10:11:18.086Z,960.52
2023-04-02T10:12:18.085Z,960.52
2023-04-02T10:13:18.050Z,960.53
2023-04-02T10:14:18.091Z,960.54
2023-04-02T10:15:18.052Z,960.55
2023-04-02T10:16:18.095Z,960.56
2023-04-02T10:17:18.108Z,960.58
2023-04-02T10:18:18.009Z,960.59
2023-04-02T10:19:18.067Z,960.60
2023-04-02T10:20:18.024Z,960.60
2023-04-02T10:21:17.993Z,960.61
2023-04-02T10:22:17.984Z,960.62
2023-04-02T10:23:17.958Z,960.63
2023-04-02T10:24:17.968Z,960.63
2023-04-02T10:25:17.931Z,960.64
2023-04-02T10:26:17.922Z,960.65
2023-04-02T10:27:18.080Z,960.66
2023-04-02T10:28:17.987Z,960.67
2023-04-02T10:29:17.900Z,960.68
2023-04-02T10:30:17.910Z,960.69
2023-04-02T10:31:17.909Z,960.71
2023-04-02T10:32:17.884Z,960.71
2023-04-02T10:33:17.919Z,960.73
2023-04-02T10:34:17.888Z,960.74
2023-04-02T10:35:17.834Z,960.74
2023-04-02T10:36:17.878Z,960.76
2023-04-02T10:37:17.847Z,960.76
2023-04-02T10:38:17.806Z,960.77
2023-04-02T10:39:17.789Z,960.77
2023-04-02T10:40:17.799Z,960.78
2023-04-02T10:41:17.770Z,960.80
2023-04-02T10:42:17.851Z,960.81
2023-04-02T10:43:17.784Z,960.83
2023-04-02T10:44:20.544Z,960.84
2023-04-02T10:45:17.726Z,960.84
2023-04-02T10:46:17.754Z,960.86
2023-04-02T10:47:17.728Z,960.87
2023-04-02T10:48:17.712Z,960.88
2023-04-02T10:49:17.754Z,960.89
2023-04-02T10:50:17.702Z,960.89
2023-04-02T10:51:17.692Z,960.90
2023-04-02T10:52:17.706Z,960.90
2023-04-02T10:53:17.664Z,960.91
2023-04-02T10:54:17.657Z,960.93
2023-04-02T10:55:17.641Z,960.95
2023-04-02T10:56:17.618Z,960.96
2023-04-02T10:57:17.676Z,960.97
2023-04-02T10:58:17.602Z,960.98
2023-04-02T10:59:17.681Z,960.98
2023-04-02T11:00:17.580Z,961.00
2023-04-02T11:01:17.577Z,961.00
2023-04-02T11:02:17.634Z,961.02
2023-04-02T11:03:17.646Z,961.02
2023-04-02T11:04:17.542Z,961.03
2023-04-02T11:05:17.544Z,961.03
2023-04-02T11:06:17.530Z,961.05
2023-04-02T11:07:17.522Z,961.06
2023-04-02T11:08:17.735Z,961.08
2023-04-02T11:09:17.486Z,961.09
2023-04-02T11:10:17.486Z,961.09
2023-04-02T11:11:17.473Z,961.10
2023-04-02T11:12:17.474Z,961.11
2023-04-02T11:13:17.445Z,961.13
2023-04-02T11:14:17.443Z,961.14
2023-04-02T11:15:17.453Z,961.14
2023-04-02T11:16:17.421Z,961.15
2023-04-02T11:17:17.426Z,961.17
2023-04-02T11:18:17.406Z,961.17
2023-04-02T11:19:17.441Z,961.17
2023-04-02T11:20:17.372Z,961.17
2023-04-02T11:21:17.374Z,961.18
2023-04-02T11:22:17.391Z,961.19
2023-04-02T11:23:17.542Z,961.22
2023-04-02T11:24:17.326Z,961.21
2023-04-02T11:25:17.315Z,961.22
2023-04-02T11:26:17.311Z,961.24
2023-04-02T11:27:17.377Z,961.25
2023-04-02T11:28:17.309Z,961.27
2023-04-02T11:29:17.293Z,961.29
2023-04-02T11:30:17.271Z,961.30
2023-04-02T11:31:17.276Z,961.31
2023-04-02T11:32:17.263Z,961.33
2023-04-02T11:33:20.853Z,961.33
2023-04-02T11:34:17.312Z,961.36
2023-04-02T11:35:17.306Z,961.36
2023-04-02T11:36:17.220Z,961.36
2023-04-02T11:37:17.242Z,961.37
2023-04-02T11:38:17.191Z,961.39
2023-04-02T11:39:17.818Z,961.39
2023-04-02T11:40:17.175Z,961.40
2023-04-02T11:41:17.230Z,961.41
2023-04-02T11:42:17.176Z,961.42
2023-04-02T11:43:17.162Z,961.42
2023-04-02T11:44:17.128Z,961.43
2023-04-02T11:45:18.160Z,961.44
2023-04-02T11:46:17.200Z,961.45
2023-04-02T11:47:17.116Z,961.46
2023-04-02T11:48:17.085Z,961.46
2023-04-02T11:49:17.085Z,961.45
2023-04-02T11:50:17.069Z,961.47
2023-04-02T11:51:17.953Z,961.48
2023-04-02T11:52:17.088Z,961.47
2023-04-02T11:53:17.067Z,961.48
2023-04-02T11:54:17.042Z,961.48
2023-04-02T11:55:17.037Z,961.47
2023-04-02T11:56:17.040Z,961.47
2023-04-02T11:57:18.030Z,961.48
2023-04-02T11:58:17.102Z,961.49
2023-04-02T11:59:16.992Z,961.50
2023-04-02T12:00:18.074Z,961.50
2023-04-02T12:01:16.974Z,961.52
2023-04-02T12:02:17.020Z,961.53
2023-04-02T12:03:16.998Z,961.54
2023-04-02T12:04:16.940Z,961.56
2023-04-02T12:05:16.943Z,961.56
2023-04-02T12:06:16.909Z,961.58
2023-04-02T12:07:16.952Z,961.60
2023-04-02T12:08:16.912Z,961.61
2023-04-02T12:09:16.865Z,961.62
2023-04-02T12:10:16.880Z,961.63
2023-04-02T12:11:16.854Z,961.65
2023-04-02T12:12:16.855Z,961.67
2023-04-02T12:13:16.831Z,961.67
2023-04-02T12:14:16.841Z,961.67
2023-04-02T12:15:16.808Z,961.67
2023-04-02T12:16:16.907Z,961.67
2023-04-02T12:17:16.844Z,961.68
2023-04-02T12:18:16.790Z,961.68
2023-04-02T12:19:16.791Z,961.68
2023-04-02T12:20:16.798Z,961.68
2023-04-02T12:21:16.752Z,961.67
2023-04-02T12:22:16.778Z,961.69
2023-04-02T12:23:16.757Z,961.69
2023-04-02T12:24:16.714Z,961.69
2023-04-02T12:25:16.720Z,961.69
2023-04-02T12:26:16.718Z,961.69
2023-04-02T12:27:16.694Z,961.69
2023-04-02T12:28:16.689Z,961.68